createdAt,value
2018-12-18T00:01:56.196Z,95424.75
2018-12-18T00:04:28.381Z,95406.73
2018-12-18T00:07:00.647Z,95421.67
2018-12-18T00:09:30.865Z,95421.14
2018-12-18T00:12:01.048Z,95425.16
2018-12-18T00:14:31.385Z,95427.02
2018-12-18T00:17:01.769Z,95419.22
2018-12-18T00:19:31.946Z,95421.77
2018-12-18T00:22:02.096Z,95420.86
2018-12-18T00:24:32.569Z,95426.97
2018-12-18T00:27:02.984Z,95428.32
2018-12-18T00:29:33.225Z,95430.88
2018-12-18T00:32:03.607Z,95439.26
2018-12-18T00:34:33.653Z,95436.94
2018-12-18T00:37:03.886Z,95434.42
2018-12-18T00:39:34.076Z,95433.25
2018-12-18T00:42:04.519Z,95444.27
2018-12-18T00:44:34.656Z,95446.57
2018-12-18T00:47:04.891Z,95452.52
2018-12-18T00:49:34.987Z,95455.05
2018-12-18T00:52:05.317Z,95454.74
2018-12-18T00:54:35.620Z,95452.59
2018-12-18T00:57:06.776Z,95459.70
2018-12-18T00:59:37.015Z,95469.55
2018-12-18T01:02:07.306Z,95463.54
2018-12-18T01:04:37.349Z,95472.53
2018-12-18T01:07:07.569Z,95463.73
2018-12-18T01:09:37.814Z,95464.81
2018-12-18T01:12:08.047Z,95468.88
2018-12-18T01:14:38.287Z,95473.37
2018-12-18T01:17:09.343Z,95471.06
2018-12-18T01:19:39.618Z,95473.00
2018-12-18T01:22:09.719Z,95464.20
2018-12-18T01:24:39.907Z,95463.06
2018-12-18T01:27:10.216Z,95462.62
2018-12-18T01:29:40.409Z,95466.93
2018-12-18T01:32:10.743Z,95465.98
2018-12-18T01:34:41.977Z,95478.11
2018-12-18T01:37:12.697Z,95476.87
2018-12-18T01:39:43.952Z,95471.83
2018-12-18T01:42:14.183Z,95475.26
2018-12-18T01:44:44.411Z,95473.95
2018-12-18T01:47:15.153Z,95473.55
2018-12-18T01:49:45.464Z,95467.80
2018-12-18T01:52:15.554Z,95474.82
2018-12-18T01:54:45.785Z,95476.97
2018-12-18T01:57:16.029Z,95474.35
2018-12-18T01:59:46.495Z,95472.57
2018-12-18T02:02:17.393Z,95480.35
2018-12-18T02:04:47.687Z,95480.73
2018-12-18T02:07:18.600Z,95483.34
2018-12-18T02:09:48.876Z,95479.92
2018-12-18T02:12:19.098Z,95487.58
2018-12-18T02:14:49.379Z,95484.02
2018-12-18T02:17:19.649Z,95473.23
2018-12-18T02:19:49.909Z,95478.23
2018-12-18T02:22:20.151Z,95473.80
2018-12-18T02:24:50.404Z,95478.67
2018-12-18T02:27:21.775Z,95478.03
2018-12-18T02:29:51.994Z,95484.34
2018-12-18T02:32:22.188Z,95478.16
2018-12-18T02:34:52.369Z,95481.69
2018-12-18T02:37:22.355Z,95485.18
2018-12-18T02:39:52.442Z,95478.23
2018-12-18T02:42:22.560Z,95476.57
2018-12-18T02:44:52.729Z,95483.13
2018-12-18T02:47:22.987Z,95469.45
2018-12-18T02:49:53.420Z,95463.60
2018-12-18T02:52:23.626Z,95468.44
2018-12-18T02:54:53.791Z,95463.58
2018-12-18T02:57:24.004Z,95458.70
2018-12-18T02:59:55.173Z,95469.91
2018-12-18T03:02:25.614Z,95471.36
2018-12-18T03:04:55.810Z,95471.26
2018-12-18T03:07:26.104Z,95469.74
2018-12-18T03:09:56.265Z,95473.53
2018-12-18T03:12:26.578Z,95470.55
2018-12-18T03:14:56.801Z,95470.52
2018-12-18T03:17:27.418Z,95472.63
2018-12-18T03:19:57.748Z,95481.52
2018-12-18T03:22:28.439Z,95477.16
2018-12-18T03:24:58.534Z,95475.67
2018-12-18T03:27:28.951Z,95485.50
2018-12-18T03:29:59.209Z,95495.77
2018-12-18T03:32:35.512Z,95488.92
2018-12-18T03:35:05.880Z,95485.85
2018-12-18T03:37:35.927Z,95483.51
2018-12-18T03:40:07.023Z,95480.84
2018-12-18T03:42:37.904Z,95488.95
2018-12-18T03:45:08.529Z,95487.95
2018-12-18T03:47:38.832Z,95496.70
2018-12-18T03:50:09.286Z,95504.40
2018-12-18T03:52:39.276Z,95502.99
2018-12-18T03:55:09.494Z,95503.15
2018-12-18T03:57:39.764Z,95508.23
2018-12-18T04:00:11.627Z,95506.91
2018-12-18T04:02:41.873Z,95513.33
2018-12-18T04:05:12.053Z,95518.73
2018-12-18T04:07:42.296Z,95519.82
2018-12-18T04:10:12.622Z,95519.82
2018-12-18T04:12:42.841Z,95526.30
2018-12-18T04:15:13.471Z,95529.31
2018-12-18T04:17:43.702Z,95532.09
2018-12-18T04:20:14.061Z,95532.13
2018-12-18T04:22:44.111Z,95537.31
2018-12-18T04:25:14.276Z,95535.84
2018-12-18T04:27:44.561Z,95540.81
2018-12-18T04:30:14.829Z,95547.45
2018-12-18T04:32:45.296Z,95547.14
2018-12-18T04:35:17.550Z,95545.77
2018-12-18T04:37:47.764Z,95549.77
2018-12-18T04:40:18.172Z,95555.28
2018-12-18T04:42:48.317Z,95554.60
2018-12-18T04:45:18.521Z,95551.79
2018-12-18T04:47:48.947Z,95558.43
2018-12-18T04:50:19.100Z,95568.38
2018-12-18T04:52:49.824Z,95570.03
2018-12-18T04:55:20.639Z,95571.39
2018-12-18T04:57:51.522Z,95573.27
2018-12-18T05:00:22.135Z,95579.09
2018-12-18T05:02:53.000Z,95580.92
2018-12-18T05:05:23.234Z,95586.57
2018-12-18T05:07:53.501Z,95587.09
2018-12-18T05:10:23.722Z,95586.75
2018-12-18T05:12:53.838Z,95591.92
2018-12-18T05:15:24.146Z,95597.16
2018-12-18T05:17:54.434Z,95596.44
2018-12-18T05:20:24.644Z,95594.83
2018-12-18T05:22:54.764Z,95606.30
2018-12-18T05:25:25.080Z,95600.90
2018-12-18T05:27:55.297Z,95599.83
2018-12-18T05:30:25.505Z,95600.27
2018-12-18T05:32:55.805Z,95605.29
2018-12-18T05:35:26.431Z,95609.92
2018-12-18T05:37:57.274Z,95603.70
2018-12-18T05:40:27.632Z,95612.94
2018-12-18T05:42:58.059Z,95617.36
2018-12-18T05:45:28.264Z,95615.58
2018-12-18T05:47:58.541Z,95620.13
2018-12-18T05:50:28.675Z,95620.03
2018-12-18T05:52:58.925Z,95619.56
2018-12-18T05:55:28.982Z,95615.86
2018-12-18T05:57:59.577Z,95622.12
2018-12-18T06:00:29.623Z,95636.16
2018-12-18T06:02:59.869Z,95624.42
2018-12-18T06:05:30.193Z,95630.12
2018-12-18T06:08:00.469Z,95630.72
2018-12-18T06:10:30.668Z,95628.84
2018-12-18T06:13:00.805Z,95626.79
2018-12-18T06:15:31.071Z,95630.84
2018-12-18T06:18:01.352Z,95635.90
2018-12-18T06:20:31.613Z,95637.89
2018-12-18T06:23:02.031Z,95638.83
2018-12-18T06:25:32.237Z,95640.58
2018-12-18T06:28:02.388Z,95636.11
2018-12-18T06:30:32.614Z,95643.30
2018-12-18T06:33:02.700Z,95646.66
2018-12-18T06:35:33.095Z,95641.13
2018-12-18T06:38:03.927Z,95648.19
2018-12-18T06:40:34.139Z,95646.36
2018-12-18T06:43:04.392Z,95648.31
2018-12-18T06:45:34.726Z,95640.80
2018-12-18T06:48:04.968Z,95648.53
2018-12-18T06:50:35.921Z,95649.67
2018-12-18T06:53:06.159Z,95651.50
2018-12-18T06:55:36.413Z,95654.95
2018-12-18T06:58:07.092Z,95649.80
2018-12-18T07:00:37.202Z,95657.92
2018-12-18T07:03:07.523Z,95659.80
2018-12-18T07:05:37.640Z,95657.46
2018-12-18T07:08:07.931Z,95666.23
2018-12-18T07:10:38.160Z,95663.46
2018-12-18T07:13:08.456Z,95670.39
2018-12-18T07:15:38.643Z,95670.19
2018-12-18T07:18:09.362Z,95671.75
2018-12-18T07:20:39.622Z,95675.62
2018-12-18T07:23:09.871Z,95674.30
2018-12-18T07:25:40.109Z,95679.78
2018-12-18T07:28:10.379Z,95685.70
2018-12-18T07:30:40.378Z,95672.73
2018-12-18T07:33:10.627Z,95683.70
2018-12-18T07:35:40.923Z,95684.59
2018-12-18T07:38:11.785Z,95688.64
2018-12-18T07:40:41.925Z,95694.42
2018-12-18T07:43:12.137Z,95691.43
2018-12-18T07:45:42.357Z,95689.56
2018-12-18T07:48:12.568Z,95680.98
2018-12-18T07:50:42.749Z,95698.30
2018-12-18T07:53:12.999Z,95705.43
2018-12-18T07:55:43.758Z,95701.03
2018-12-18T07:58:13.972Z,95701.54
2018-12-18T08:00:44.405Z,95706.14
2018-12-18T08:03:14.611Z,95709.99
2018-12-18T08:05:45.127Z,95709.86
2018-12-18T08:08:15.561Z,95705.48
2018-12-18T08:10:45.813Z,95707.22
2018-12-18T08:13:16.011Z,95708.56
2018-12-18T08:15:46.239Z,95714.38
2018-12-18T08:18:16.451Z,95715.33
2018-12-18T08:20:46.647Z,95713.48
2018-12-18T08:23:16.821Z,95719.53
2018-12-18T08:25:47.070Z,95713.38
2018-12-18T08:28:17.186Z,95721.12
2018-12-18T08:30:47.433Z,95713.58
2018-12-18T08:33:17.681Z,95721.75
2018-12-18T08:35:47.916Z,95730.60
2018-12-18T08:38:18.054Z,95727.08
2018-12-18T08:40:48.294Z,95729.09
2018-12-18T08:43:18.794Z,95734.00
2018-12-18T08:45:49.254Z,95731.61
2018-12-18T08:48:19.416Z,95733.22
2018-12-18T08:50:50.151Z,95738.17
2018-12-18T08:53:20.315Z,95733.83
2018-12-18T08:55:50.494Z,95734.00
2018-12-18T08:58:20.808Z,95734.88
2018-12-18T09:00:51.173Z,95738.74
2018-12-18T09:03:21.417Z,95742.20
2018-12-18T09:05:51.636Z,95736.93
2018-12-18T09:08:21.900Z,95739.45
2018-12-18T09:10:52.636Z,95735.55
2018-12-18T09:13:22.775Z,95728.78
2018-12-18T09:15:58.084Z,95734.88
2018-12-18T09:18:28.324Z,95726.77
2018-12-18T09:20:58.558Z,95735.23
2018-12-18T09:23:28.973Z,95733.95
2018-12-18T09:25:59.184Z,95734.95
2018-12-18T09:28:29.477Z,95729.59
2018-12-18T09:31:00.022Z,95723.28
2018-12-18T09:33:30.262Z,95721.42
2018-12-18T09:36:00.684Z,95722.25
2018-12-18T09:38:35.948Z,95723.17
2018-12-18T09:41:11.333Z,95719.14
2018-12-18T09:43:46.461Z,95722.94
2018-12-18T09:46:16.773Z,95721.53
2018-12-18T09:48:47.239Z,95720.33
2018-12-18T09:51:17.572Z,95714.94
2018-12-18T09:53:47.865Z,95720.78
2018-12-18T09:56:18.064Z,95726.03
2018-12-18T09:58:48.251Z,95725.56
2018-12-18T10:01:18.505Z,95725.84
2018-12-18T10:03:48.629Z,95713.63
2018-12-18T10:06:18.918Z,95717.41
2018-12-18T10:08:49.069Z,95714.41
2018-12-18T10:11:19.315Z,95706.62
2018-12-18T10:13:50.403Z,95711.23
2018-12-18T10:16:20.753Z,95707.69
2018-12-18T10:18:50.924Z,95706.02
2018-12-18T10:21:21.299Z,95703.73
2018-12-18T10:23:51.366Z,95704.84
2018-12-18T10:26:21.589Z,95703.36
2018-12-18T10:28:51.787Z,95703.77
2018-12-18T10:31:22.788Z,95703.42
2018-12-18T10:33:54.077Z,95696.22
2018-12-18T10:36:24.262Z,95693.73
2018-12-18T10:38:54.501Z,95691.18
2018-12-18T10:41:24.652Z,95691.83
2018-12-18T10:43:55.859Z,95696.86
2018-12-18T10:46:26.071Z,95686.79
2018-12-18T10:48:57.367Z,95693.40
2018-12-18T10:51:27.548Z,95693.33
2018-12-18T10:53:57.813Z,95694.29
2018-12-18T10:56:28.356Z,95688.80
2018-12-18T10:58:58.705Z,95692.86
2018-12-18T11:01:33.918Z,95689.37
2018-12-18T11:04:04.298Z,95684.53
2018-12-18T11:06:34.391Z,95675.55
2018-12-18T11:09:08.931Z,95677.70
2018-12-18T11:11:39.216Z,95665.12
2018-12-18T11:15:38.692Z,95669.90
2018-12-18T11:18:08.953Z,95673.13
2018-12-18T11:20:39.109Z,95669.41
2018-12-18T11:23:09.290Z,95666.47
2018-12-18T11:25:39.517Z,95661.87
2018-12-18T11:28:09.961Z,95661.17
2018-12-18T11:30:40.366Z,95657.84
2018-12-18T11:33:10.649Z,95653.03
2018-12-18T11:35:40.830Z,95659.86
2018-12-18T11:38:11.221Z,95661.94
2018-12-18T11:40:41.579Z,95657.96
2018-12-18T11:43:11.822Z,95668.53
2018-12-18T11:45:42.314Z,95658.38
2018-12-18T11:48:12.609Z,95659.66
2018-12-18T11:50:42.871Z,95659.93
2018-12-18T11:53:12.925Z,95667.04
2018-12-18T11:55:43.130Z,95666.04
2018-12-18T11:58:13.368Z,95662.20
2018-12-18T12:00:43.874Z,95662.08
2018-12-18T12:03:14.164Z,95659.59
2018-12-18T12:05:46.436Z,95663.27
2018-12-18T12:08:17.200Z,95658.95
2018-12-18T12:10:48.035Z,95667.05
2018-12-18T12:13:18.310Z,95662.71
2018-12-18T12:15:48.544Z,95664.55
2018-12-18T12:18:18.756Z,95658.97
2018-12-18T12:20:49.898Z,95657.48
2018-12-18T12:23:20.293Z,95663.50
2018-12-18T12:25:50.599Z,95663.63
2018-12-18T12:28:20.934Z,95660.78
2018-12-18T12:30:51.211Z,95660.78
2018-12-18T12:33:21.410Z,95666.08
2018-12-18T12:35:51.628Z,95668.52
2018-12-18T12:38:22.073Z,95671.69
2018-12-18T12:40:52.359Z,95673.10
2018-12-18T12:43:22.736Z,95671.77
2018-12-18T12:45:53.044Z,95677.08
2018-12-18T12:48:29.489Z,95682.88
2018-12-18T12:50:59.776Z,95681.48
2018-12-18T12:53:30.003Z,95679.89
2018-12-18T12:56:00.317Z,95675.94
2018-12-18T12:58:30.432Z,95674.14
2018-12-18T13:01:00.831Z,95674.48
2018-12-18T13:03:32.087Z,95669.44
2018-12-18T13:06:02.913Z,95673.91
2018-12-18T13:08:33.153Z,95670.75
2018-12-18T13:11:03.421Z,95671.66
2018-12-18T13:13:33.648Z,95679.73
2018-12-18T13:16:04.636Z,95676.52
2018-12-18T13:18:34.669Z,95681.08
2018-12-18T13:21:04.948Z,95681.69
2018-12-18T13:23:35.176Z,95683.06
2018-12-18T13:26:05.437Z,95684.08
2018-12-18T13:28:35.809Z,95678.16
2018-12-18T13:31:06.002Z,95680.88
2018-12-18T13:33:36.347Z,95683.95
2018-12-18T13:36:06.535Z,95683.67
2018-12-18T13:38:36.873Z,95666.69
2018-12-18T13:41:07.002Z,95678.78
2018-12-18T13:43:37.234Z,95679.13
2018-12-18T13:46:07.467Z,95676.70
2018-12-18T13:48:38.245Z,95685.53
2018-12-18T13:51:08.256Z,95684.08
2018-12-18T13:53:38.467Z,95683.58
2018-12-18T13:56:08.685Z,95688.22
2018-12-18T13:58:39.417Z,95690.58
2018-12-18T14:01:09.833Z,95689.06
2018-12-18T14:03:40.034Z,95694.50
2018-12-18T14:06:10.233Z,95691.42
2018-12-18T14:08:40.509Z,95695.95
2018-12-18T14:11:10.920Z,95694.45
2018-12-18T14:13:41.433Z,95697.38
2018-12-18T14:16:11.635Z,95691.88
2018-12-18T14:18:41.921Z,95699.55
2018-12-18T14:21:12.106Z,95699.88
2018-12-18T14:23:42.299Z,95695.80
2018-12-18T14:26:12.625Z,95699.50
2018-12-18T14:28:42.785Z,95702.08
2018-12-18T14:31:13.001Z,95707.53
2018-12-18T14:33:43.378Z,95705.57
2018-12-18T14:36:13.770Z,95707.41
2018-12-18T14:38:43.890Z,95705.70
2018-12-18T14:41:14.161Z,95706.47
2018-12-18T14:43:45.015Z,95705.48
2018-12-18T14:46:15.163Z,95708.89
2018-12-18T14:48:45.459Z,95711.70
2018-12-18T14:51:15.694Z,95708.22
2018-12-18T14:53:45.784Z,95705.78
2018-12-18T14:56:16.054Z,95706.62
2018-12-18T14:58:46.265Z,95713.52
2018-12-18T15:01:16.396Z,95718.41
2018-12-18T15:03:46.575Z,95716.74
2018-12-18T15:06:16.820Z,95708.21
2018-12-18T15:08:47.509Z,95708.55
2018-12-18T15:11:17.624Z,95714.85
2018-12-18T15:13:47.784Z,95712.77
2018-12-18T15:16:18.837Z,95715.41
2018-12-18T15:18:49.061Z,95712.64
2018-12-18T15:21:19.305Z,95718.50
2018-12-18T15:23:50.092Z,95715.05
2018-12-18T15:26:20.156Z,95717.56
2018-12-18T15:28:50.335Z,95712.84
2018-12-18T15:31:20.499Z,95719.38
2018-12-18T15:33:50.704Z,95712.71
2018-12-18T15:36:21.080Z,95710.91
2018-12-18T15:38:51.502Z,95715.05
2018-12-18T15:41:21.653Z,95714.79
2018-12-18T15:43:51.982Z,95715.72
2018-12-18T15:46:22.237Z,95713.59
2018-12-18T15:48:53.092Z,95718.56
2018-12-18T15:51:23.503Z,95709.20
2018-12-18T15:53:53.740Z,95726.56
2018-12-18T15:56:23.928Z,95723.86
2018-12-18T15:58:54.113Z,95726.90
2018-12-18T16:01:24.929Z,95730.64
2018-12-18T16:03:55.137Z,95730.84
2018-12-18T16:06:25.444Z,95730.64
2018-12-18T16:08:56.292Z,95732.00
2018-12-18T16:11:26.330Z,95733.98
2018-12-18T16:13:56.346Z,95737.41
2018-12-18T16:16:26.723Z,95745.41
2018-12-18T16:18:56.957Z,95734.86
2018-12-18T16:21:27.144Z,95743.80
2018-12-18T16:23:57.684Z,95750.97
2018-12-18T16:26:28.138Z,95745.28
2018-12-18T16:28:58.156Z,95747.62
2018-12-18T16:31:28.261Z,95754.34
2018-12-18T16:33:58.721Z,95756.59
2018-12-18T16:36:28.997Z,95757.60
2018-12-18T16:38:59.224Z,95763.61
2018-12-18T16:41:29.525Z,95761.71
2018-12-18T16:43:59.705Z,95767.90
2018-12-18T16:46:29.881Z,95771.97
2018-12-18T16:49:00.066Z,95773.41
2018-12-18T16:51:31.079Z,95776.48
2018-12-18T16:54:01.328Z,95773.50
2018-12-18T16:56:31.484Z,95777.63
2018-12-18T16:59:01.723Z,95776.88
2018-12-18T17:01:31.937Z,95778.75
2018-12-18T17:04:02.269Z,95786.62
2018-12-18T17:06:32.405Z,95779.88
2018-12-18T17:09:04.498Z,95783.30
2018-12-18T17:11:35.659Z,95785.91
2018-12-18T17:14:05.927Z,95784.45
2018-12-18T17:16:36.753Z,95783.70
2018-12-18T17:19:07.005Z,95786.44
2018-12-18T17:21:37.928Z,95793.03
2018-12-18T17:24:08.184Z,95790.23
2018-12-18T17:26:39.222Z,95790.54
2018-12-18T17:29:09.669Z,95796.76
2018-12-18T17:31:40.815Z,95798.38
2018-12-18T17:34:11.066Z,95788.45
2018-12-18T17:36:41.311Z,95801.11
2018-12-18T17:39:11.541Z,95800.86
2018-12-18T17:41:41.767Z,95799.09
2018-12-18T17:44:11.990Z,95802.67
2018-12-18T17:46:42.227Z,95808.64
2018-12-18T17:49:13.090Z,95814.67
2018-12-18T17:51:43.281Z,95804.91
2018-12-18T17:54:13.519Z,95814.18
2018-12-18T17:56:43.746Z,95819.78
2018-12-18T17:59:13.985Z,95818.28
2018-12-18T18:01:44.106Z,95815.20
2018-12-18T18:04:14.970Z,95818.63
2018-12-18T18:06:45.216Z,95826.69
2018-12-18T18:09:15.528Z,95826.84
2018-12-18T18:11:46.405Z,95817.17
2018-12-18T18:14:16.889Z,95812.87
2018-12-18T18:16:46.965Z,95815.49
2018-12-18T18:19:17.284Z,95818.20
2018-12-18T18:21:47.529Z,95819.40
2018-12-18T18:24:18.385Z,95823.85
2018-12-18T18:26:48.648Z,95823.70
2018-12-18T18:29:19.015Z,95821.85
2018-12-18T18:31:49.482Z,95820.17
2018-12-18T18:34:19.938Z,95823.09
2018-12-18T18:36:51.762Z,95823.73
2018-12-18T18:39:24.560Z,95831.89
2018-12-18T18:41:57.069Z,95829.44
2018-12-18T18:44:29.155Z,95831.30
2018-12-18T18:47:01.512Z,95832.75
2018-12-18T18:49:34.094Z,95833.44
2018-12-18T18:52:06.403Z,95828.92
2018-12-18T18:54:38.871Z,95837.26
2018-12-18T18:57:10.957Z,95834.39
2018-12-18T18:59:43.241Z,95838.02
2018-12-18T19:02:15.936Z,95841.05
2018-12-18T19:04:48.314Z,95841.74
2018-12-18T19:07:20.552Z,95841.20
2018-12-18T19:09:53.033Z,95835.36
2018-12-18T19:12:25.284Z,95838.16
2018-12-18T19:14:57.495Z,95837.67
2018-12-18T19:17:29.538Z,95841.74
2018-12-18T19:20:01.830Z,95839.87
2018-12-18T19:22:34.995Z,95850.61
2018-12-18T19:25:07.083Z,95851.98
2018-12-18T19:27:39.229Z,95846.77
2018-12-18T19:30:11.381Z,95847.23
2018-12-18T19:32:43.645Z,95841.59
2018-12-18T19:35:16.132Z,95844.67
2018-12-18T19:37:47.978Z,95854.48
2018-12-18T19:40:20.124Z,95858.90
2018-12-18T19:42:53.397Z,95855.64
2018-12-18T19:45:25.499Z,95859.19
2018-12-18T19:47:57.834Z,95863.73
2018-12-18T19:51:46.184Z,95867.22
2018-12-18T19:54:18.349Z,95864.59
2018-12-18T19:56:50.580Z,95864.73
2018-12-18T19:59:23.085Z,95859.58
2018-12-18T20:01:54.995Z,95861.55
2018-12-18T20:04:27.356Z,95862.06
2018-12-18T20:06:59.180Z,95869.69
2018-12-18T20:09:31.513Z,95860.63
2018-12-18T20:12:03.601Z,95862.80
2018-12-18T20:14:36.252Z,95861.59
2018-12-18T20:17:08.338Z,95863.45
2018-12-18T20:19:41.825Z,95858.85
2018-12-18T20:22:13.826Z,95869.00
2018-12-18T20:24:45.798Z,95863.91
2018-12-18T20:27:17.935Z,95865.42
2018-12-18T20:29:50.409Z,95863.61
2018-12-18T20:32:22.741Z,95861.41
2018-12-18T20:34:55.210Z,95859.05
2018-12-18T20:37:27.409Z,95866.11
2018-12-18T20:39:59.390Z,95859.73
2018-12-18T20:42:31.614Z,95853.95
2018-12-18T20:45:04.010Z,95855.91
2018-12-18T20:50:11.403Z,95860.66
2018-12-18T20:52:43.236Z,95864.14
2018-12-18T20:55:13.602Z,95863.76
2018-12-18T20:57:43.886Z,95857.94
2018-12-18T21:00:14.790Z,95858.12
2018-12-18T21:02:45.190Z,95862.98
2018-12-18T21:05:15.652Z,95860.48
2018-12-18T21:07:46.689Z,95862.69
2018-12-18T21:10:19.267Z,95859.50
2018-12-18T21:12:50.472Z,95861.98
2018-12-18T21:15:21.058Z,95862.51
2018-12-18T21:17:51.588Z,95867.33
2018-12-18T21:20:22.048Z,95866.23
2018-12-18T21:22:52.436Z,95861.15
2018-12-18T21:25:22.966Z,95861.19
2018-12-18T21:27:53.308Z,95863.56
2018-12-18T21:30:23.903Z,95851.05
2018-12-18T21:32:54.303Z,95854.34
2018-12-18T21:35:24.771Z,95846.81
2018-12-18T21:37:55.374Z,95860.83
2018-12-18T21:40:25.926Z,95854.52
2018-12-18T21:42:56.233Z,95854.78
2018-12-18T21:45:27.482Z,95850.58
2018-12-18T21:47:58.036Z,95841.95
2018-12-18T21:50:28.302Z,95840.67
2018-12-18T21:52:59.769Z,95832.45
2018-12-18T21:55:29.907Z,95841.91
2018-12-18T21:58:00.207Z,95838.95
2018-12-18T22:00:30.618Z,95841.73
2018-12-18T22:03:00.858Z,95833.33
2018-12-18T22:05:30.990Z,95835.70
2018-12-18T22:08:01.277Z,95840.46
2018-12-18T22:10:31.434Z,95839.02
2018-12-18T22:13:01.685Z,95838.60
2018-12-18T22:15:32.096Z,95843.23
2018-12-18T22:18:02.344Z,95848.39
2018-12-18T22:20:34.212Z,95841.86
2018-12-18T22:23:04.465Z,95843.36
2018-12-18T22:25:34.750Z,95843.70
2018-12-18T22:28:04.894Z,95842.94
2018-12-18T22:30:36.093Z,95836.52
2018-12-18T22:33:06.379Z,95838.06
2018-12-18T22:35:36.620Z,95835.94
2018-12-18T22:38:07.008Z,95839.68
2018-12-18T22:40:37.373Z,95833.47
2018-12-18T22:43:07.542Z,95843.62
2018-12-18T22:45:37.832Z,95838.87
2018-12-18T22:48:08.099Z,95836.02
2018-12-18T22:50:38.339Z,95833.86
2018-12-18T22:53:08.711Z,95834.21
2018-12-18T22:55:44.653Z,95829.46
2018-12-18T22:58:11.219Z,95825.64
2018-12-18T23:00:46.575Z,95818.50
2018-12-18T23:03:16.803Z,95819.70
2018-12-18T23:05:46.911Z,95816.45
2018-12-18T23:08:17.438Z,95816.75
2018-12-18T23:10:47.540Z,95814.80
2018-12-18T23:13:24.437Z,95817.68
2018-12-18T23:15:54.733Z,95810.13
2018-12-18T23:18:25.181Z,95811.84
2018-12-18T23:20:55.507Z,95807.67
2018-12-18T23:23:25.863Z,95809.81
2018-12-18T23:25:56.190Z,95808.53
2018-12-18T23:28:26.544Z,95803.44
2018-12-18T23:30:56.882Z,95801.64
2018-12-18T23:33:27.259Z,95798.24
2018-12-18T23:35:57.479Z,95801.83
2018-12-18T23:38:27.868Z,95808.94
2018-12-18T23:40:58.283Z,95811.89
2018-12-18T23:43:28.700Z,95806.75
2018-12-18T23:45:59.182Z,95810.76
2018-12-18T23:48:29.838Z,95806.94
2018-12-18T23:51:00.241Z,95808.67
2018-12-18T23:53:30.676Z,95809.95
2018-12-18T23:56:01.040Z,95807.67
2018-12-18T23:58:31.295Z,95809.36
